»·PEaware :: N475RS KLAS-KBUR

N475RS :: KLAS-KBUR

FLIGHT INFORMATION

Flight Status: Arrived
Operator: Privately registered:
United States
More flights under this callsign
Pilot: Aker J. (16898)
Aircraft: GULFSTREAM G-1159C GULFSTREAM 4
(GLF4)
More flights by this aircraft type
Origin: KLAS McCarran Intl
United States
Destination: KBUR Bob Hope-Burbank
United States
More flights between these airports :: More routes between these airports
Route: +MCCRN5 HEC LYNXX8
File this flight plan on PilotEdge
Remarks: N475RS
Altitude:
(Current/Filed)
32,000ft
Speed:
(Current/Filed)
300kts
Departed: 04-Jan-18 02:21 PM
Arrived: 04-Jan-18 03:15 PM
Distance/Time
Traveled:
194nm/0:54
Distance/Time
To Go:
Arrived

Flight Plot

Page will automatically refresh every two minutes.

Flight plan parsing failed; only flown route is shown


Map Options




Map Legend


Flown Route
Filed Route
Departure Airport
Arrival Airport
Navaid (VOR, NDB)
Fix

Horizontal Profiles

Position Reports

Time Latitude Longitude Heading Altitude Ground
Speed
04-Jan-18 14:18 36.081976 -115.171622 0 2173ft 0kts
04-Jan-18 14:19 36.081976 -115.171622 0 2173ft 0kts
04-Jan-18 14:20 36.081976 -115.171622 0 2173ft 0kts
04-Jan-18 14:21 36.081976 -115.171622 0 2173ft 0kts
04-Jan-18 14:22 36.081632 -115.170764 115 2172ft 15kts
04-Jan-18 14:23 36.087313 -115.165905 24 2146ft 32kts
04-Jan-18 14:24 36.095642 -115.161142 25 2108ft 31kts
04-Jan-18 14:25 36.099835 -115.157603 85 2090ft 0kts
04-Jan-18 14:26 36.099836 -115.157582 86 2090ft 3kts
04-Jan-18 14:27 36.078366 -115.168653 205 2346ft 169kts
04-Jan-18 14:28 36.035485 -115.195037 209 4955ft 169kts
04-Jan-18 14:29 36.004082 -115.238220 232 8525ft 201kts
04-Jan-18 14:30 35.954796 -115.256405 176 13572ft 240kts
04-Jan-18 14:31 35.884983 -115.242415 172 17045ft 291kts
04-Jan-18 14:32 35.799693 -115.233703 215 18786ft 313kts
04-Jan-18 14:33 35.736530 -115.311203 228 20595ft 334kts
04-Jan-18 14:34 35.671360 -115.392554 228 23560ft 338kts
04-Jan-18 14:35 35.607298 -115.472118 229 26461ft 315kts
04-Jan-18 14:36 35.539420 -115.556663 229 29517ft 398kts
04-Jan-18 14:37 35.456165 -115.660042 228 32217ft 465kts
04-Jan-18 14:38 35.366555 -115.771180 229 32228ft 458kts
04-Jan-18 14:39 35.277751 -115.881186 229 32227ft 458kts
04-Jan-18 14:40 35.189366 -115.989394 228 31867ft 461kts
04-Jan-18 14:41 35.101526 -116.096480 228 29749ft 432kts
04-Jan-18 14:42 35.020755 -116.194622 228 27396ft 418kts
04-Jan-18 14:43 34.939489 -116.292911 227 24983ft 410kts
04-Jan-18 14:44 34.860828 -116.387286 227 24227ft 409kts
04-Jan-18 14:45 34.797801 -116.496681 258 24230ft 403kts
04-Jan-18 14:46 34.781578 -116.630344 263 24221ft 404kts
04-Jan-18 14:47 34.767938 -116.764050 264 24213ft 402kts
04-Jan-18 14:48 34.754548 -116.898480 263 24015ft 406kts
04-Jan-18 14:49 34.741240 -117.030831 263 21956ft 385kts
04-Jan-18 14:50 34.728348 -117.157268 262 19907ft 374kts
04-Jan-18 14:51 34.715577 -117.280467 262 17859ft 365kts
04-Jan-18 14:52 34.703573 -117.394557 262 16668ft 317kts
04-Jan-18 14:53 34.692441 -117.500353 262 15547ft 319kts
04-Jan-18 14:54 34.681299 -117.605603 262 14994ft 317kts
04-Jan-18 14:55 34.670140 -117.710141 261 14482ft 313kts
04-Jan-18 14:56 34.658956 -117.814065 261 14006ft 308kts
04-Jan-18 14:57 34.647772 -117.917104 261 13991ft 311kts
04-Jan-18 14:58 34.636406 -118.020794 261 13995ft 311kts
04-Jan-18 14:59 34.618996 -118.120023 255 13985ft 279kts
04-Jan-18 15:00 34.598429 -118.213331 254 12091ft 287kts
04-Jan-18 15:01 34.577937 -118.304768 256 9888ft 278kts
04-Jan-18 15:02 34.557242 -118.397288 256 7992ft 269kts
04-Jan-18 15:03 34.537618 -118.484789 256 8019ft 274kts
04-Jan-18 15:04 34.508412 -118.567195 211 8015ft 281kts
04-Jan-18 15:05 34.438882 -118.611420 212 6623ft 286kts
04-Jan-18 15:06 34.378044 -118.653408 211 5994ft 235kts
04-Jan-18 15:07 34.320614 -118.692717 211 5999ft 239kts
04-Jan-18 15:08 34.260739 -118.703923 142 5538ft 243kts
04-Jan-18 15:09 34.210329 -118.653139 141 4638ft 233kts
04-Jan-18 15:10 34.197553 -118.586135 79 3368ft 237kts
04-Jan-18 15:11 34.199574 -118.512547 90 2951ft 192kts
04-Jan-18 15:12 34.198917 -118.453465 91 1761ft 170kts
04-Jan-18 15:13 34.198134 -118.407047 88 1439ft 143kts
04-Jan-18 15:14 34.197887 -118.368456 89 974ft 148kts
04-Jan-18 15:15 34.188141 -118.316524 150 1480ft 204kts
04-Jan-18 15:16 34.147477 -118.350126 249 1638ft 216kts
04-Jan-18 15:17 34.147511 -118.416176 281 1687ft 189kts
04-Jan-18 15:18 34.175462 -118.448184 19 1866ft 132kts
04-Jan-18 15:19 34.199170 -118.418836 105 1448ft 138kts
04-Jan-18 15:20 34.197910 -118.370540 92 836ft 161kts
04-Jan-18 15:21 34.197747 -118.350060 19 697ft 13kts
04-Jan-18 15:22 34.198796 -118.351908 270 701ft 26kts
04-Jan-18 15:23 34.198853 -118.357397 269 717ft 25kts
04-Jan-18 15:24 34.200256 -118.359471 335 727ft 0kts
04-Jan-18 15:25 34.200256 -118.359471 335 727ft 0kts
04-Jan-18 15:26 34.200256 -118.359471 335 727ft 0kts
04-Jan-18 15:27 34.200256 -118.359471 335 727ft 0kts
04-Jan-18 15:28 34.200256 -118.359471 335 727ft 0kts
04-Jan-18 15:29 34.200256 -118.359471 335 727ft 0kts
04-Jan-18 15:30 34.200256 -118.359471 335 727ft 0kts
04-Jan-18 15:31 34.200256 -118.359471 335 727ft 0kts
04-Jan-18 15:32 34.200256 -118.359471 335 727ft 0kts
04-Jan-18 15:33 34.200256 -118.359471 335 727ft 0kts
04-Jan-18 15:34 34.200256 -118.359471 335 727ft 0kts
04-Jan-18 15:35 34.200256 -118.359471 335 727ft 0kts

Navigation Log

Ident Type
Flight plan parsing failed, navigation log unavailable